sensor_id;sensor_type;location;lat;lon;timestamp;temperature;humidity
4090;DHT22;2059;48.538;12.146;2024-03-22T00:04:45;8.20;99.90
4090;DHT22;2059;48.538;12.146;2024-03-22T00:09:47;8.20;99.90
4090;DHT22;2059;48.538;12.146;2024-03-22T00:14:48;8.10;99.90
4090;DHT22;2059;48.538;12.146;2024-03-22T00:19:53;8.10;99.90
4090;DHT22;2059;48.538;12.146;2024-03-22T00:24:54;8.20;99.90
4090;DHT22;2059;48.538;12.146;2024-03-22T00:29:56;8.30;99.90
4090;DHT22;2059;48.538;12.146;2024-03-22T00:34:59;8.40;99.90
4090;DHT22;2059;48.538;12.146;2024-03-22T00:40:01;8.50;99.90
4090;DHT22;2059;48.538;12.146;2024-03-22T00:45:03;8.10;99.90
4090;DHT22;2059;48.538;12.146;2024-03-22T00:50:07;8.00;99.90
4090;DHT22;2059;48.538;12.146;2024-03-22T00:55:09;7.80;99.90
4090;DHT22;2059;48.538;12.146;2024-03-22T01:00:12;8.00;99.90
4090;DHT22;2059;48.538;12.146;2024-03-22T01:05:15;7.80;99.90
4090;DHT22;2059;48.538;12.146;2024-03-22T01:10:17;7.70;99.90
4090;DHT22;2059;48.538;12.146;2024-03-22T01:15:19;7.80;99.90
4090;DHT22;2059;48.538;12.146;2024-03-22T01:20:22;7.60;99.90
4090;DHT22;2059;48.538;12.146;2024-03-22T01:25:24;7.60;99.90
4090;DHT22;2059;48.538;12.146;2024-03-22T01:30:25;7.50;99.90
4090;DHT22;2059;48.538;12.146;2024-03-22T01:35:30;7.40;99.90
4090;DHT22;2059;48.538;12.146;2024-03-22T01:40:32;7.50;99.90
4090;DHT22;2059;48.538;12.146;2024-03-22T01:45:33;7.40;99.90
4090;DHT22;2059;48.538;12.146;2024-03-22T01:50:37;7.50;99.90
4090;DHT22;2059;48.538;12.146;2024-03-22T01:55:39;7.50;99.90
4090;DHT22;2059;48.538;12.146;2024-03-22T02:00:41;7.20;99.90
4090;DHT22;2059;48.538;12.146;2024-03-22T02:05:44;7.00;99.90
4090;DHT22;2059;48.538;12.146;2024-03-22T02:10:46;7.00;99.90
4090;DHT22;2059;48.538;12.146;2024-03-22T02:15:48;7.20;99.90
4090;DHT22;2059;48.538;12.146;2024-03-22T02:20:51;7.20;99.90
4090;DHT22;2059;48.538;12.146;2024-03-22T02:25:54;7.10;99.90
4090;DHT22;2059;48.538;12.146;2024-03-22T02:30:56;7.30;99.90
4090;DHT22;2059;48.538;12.146;2024-03-22T02:35:58;7.00;99.90
4090;DHT22;2059;48.538;12.146;2024-03-22T02:41:01;7.00;99.90
4090;DHT22;2059;48.538;12.146;2024-03-22T02:46:04;7.10;99.90
4090;DHT22;2059;48.538;12.146;2024-03-22T02:51:06;7.20;99.90
4090;DHT22;2059;48.538;12.146;2024-03-22T02:56:09;7.00;99.90
4090;DHT22;2059;48.538;12.146;2024-03-22T03:01:11;6.80;99.90
4090;DHT22;2059;48.538;12.146;2024-03-22T03:06:12;6.70;99.90
4090;DHT22;2059;48.538;12.146;2024-03-22T03:11:16;6.90;99.90
4090;DHT22;2059;48.538;12.146;2024-03-22T03:16:18;7.10;99.90
4090;DHT22;2059;48.538;12.146;2024-03-22T03:21:20;6.90;99.90
4090;DHT22;2059;48.538;12.146;2024-03-22T03:26:23;6.90;99.90
4090;DHT22;2059;48.538;12.146;2024-03-22T03:31:25;6.80;99.90
4090;DHT22;2059;48.538;12.146;2024-03-22T03:36:26;6.70;99.90
4090;DHT22;2059;48.538;12.146;2024-03-22T03:41:29;6.90;99.90
4090;DHT22;2059;48.538;12.146;2024-03-22T03:46:31;6.80;99.90
4090;DHT22;2059;48.538;12.146;2024-03-22T03:51:33;6.60;99.90
4090;DHT22;2059;48.538;12.146;2024-03-22T03:56:36;6.70;99.90
4090;DHT22;2059;48.538;12.146;2024-03-22T04:01:38;6.60;99.90
4090;DHT22;2059;48.538;12.146;2024-03-22T04:06:39;6.90;99.90
4090;DHT22;2059;48.538;12.146;2024-03-22T04:21:56;6.60;99.90
4090;DHT22;2059;48.538;12.146;2024-03-22T04:26:58;6.70;99.90
4090;DHT22;2059;48.538;12.146;2024-03-22T04:32:00;6.50;99.90
4090;DHT22;2059;48.538;12.146;2024-03-22T04:37:03;6.60;99.90
4090;DHT22;2059;48.538;12.146;2024-03-22T04:42:06;6.60;99.90
4090;DHT22;2059;48.538;12.146;2024-03-22T04:47:08;6.50;99.90
4090;DHT22;2059;48.538;12.146;2024-03-22T04:52:11;6.30;99.90
4090;DHT22;2059;48.538;12.146;2024-03-22T04:57:13;6.20;99.90
4090;DHT22;2059;48.538;12.146;2024-03-22T05:02:15;6.20;99.90
4090;DHT22;2059;48.538;12.146;2024-03-22T05:07:19;5.90;99.90
4090;DHT22;2059;48.538;12.146;2024-03-22T05:12:21;6.30;99.90
4090;DHT22;2059;48.538;12.146;2024-03-22T05:17:23;6.00;99.90
4090;DHT22;2059;48.538;12.146;2024-03-22T05:22:27;6.20;99.90
4090;DHT22;2059;48.538;12.146;2024-03-22T05:27:30;6.50;99.90
4090;DHT22;2059;48.538;12.146;2024-03-22T05:32:32;6.60;99.90
4090;DHT22;2059;48.538;12.146;2024-03-22T05:37:36;6.80;99.90
4090;DHT22;2059;48.538;12.146;2024-03-22T05:42:38;6.90;99.90
4090;DHT22;2059;48.538;12.146;2024-03-22T05:47:39;6.70;99.90
4090;DHT22;2059;48.538;12.146;2024-03-22T05:52:43;6.80;99.90
4090;DHT22;2059;48.538;12.146;2024-03-22T05:57:45;6.70;99.90
4090;DHT22;2059;48.538;12.146;2024-03-22T06:02:46;6.80;99.90
4090;DHT22;2059;48.538;12.146;2024-03-22T06:07:50;6.80;99.90
4090;DHT22;2059;48.538;12.146;2024-03-22T06:12:52;7.10;99.90
4090;DHT22;2059;48.538;12.146;2024-03-22T06:17:54;7.10;99.90
4090;DHT22;2059;48.538;12.146;2024-03-22T06:22:57;7.00;99.90
4090;DHT22;2059;48.538;12.146;2024-03-22T06:27:59;7.00;99.90
4090;DHT22;2059;48.538;12.146;2024-03-22T06:33:01;7.10;99.90
4090;DHT22;2059;48.538;12.146;2024-03-22T06:38:05;7.30;99.90
4090;DHT22;2059;48.538;12.146;2024-03-22T06:43:07;7.40;99.90
4090;DHT22;2059;48.538;12.146;2024-03-22T06:48:09;7.30;99.90
4090;DHT22;2059;48.538;12.146;2024-03-22T06:53:13;7.80;99.90
4090;DHT22;2059;48.538;12.146;2024-03-22T06:58:14;8.00;99.90
4090;DHT22;2059;48.538;12.146;2024-03-22T07:03:16;8.40;99.90
4090;DHT22;2059;48.538;12.146;2024-03-22T07:08:19;8.90;99.90
4090;DHT22;2059;48.538;12.146;2024-03-22T07:13:21;9.30;99.90
4090;DHT22;2059;48.538;12.146;2024-03-22T07:18:23;9.80;99.90
4090;DHT22;2059;48.538;12.146;2024-03-22T07:23:26;10.40;99.90
4090;DHT22;2059;48.538;12.146;2024-03-22T07:28:28;10.60;99.90
4090;DHT22;2059;48.538;12.146;2024-03-22T07:33:31;10.20;99.90
4090;DHT22;2059;48.538;12.146;2024-03-22T07:38:34;10.00;99.90
4090;DHT22;2059;48.538;12.146;2024-03-22T07:43:38;10.00;99.90
4090;DHT22;2059;48.538;12.146;2024-03-22T07:48:40;10.10;99.90
4090;DHT22;2059;48.538;12.146;2024-03-22T07:53:43;10.20;99.90
4090;DHT22;2059;48.538;12.146;2024-03-22T07:58:45;10.10;99.90
4090;DHT22;2059;48.538;12.146;2024-03-22T08:03:47;10.10;99.90
4090;DHT22;2059;48.538;12.146;2024-03-22T08:08:50;10.10;99.90
4090;DHT22;2059;48.538;12.146;2024-03-22T08:13:52;10.30;99.90
4090;DHT22;2059;48.538;12.146;2024-03-22T08:19:02;10.60;99.90
4090;DHT22;2059;48.538;12.146;2024-03-22T08:24:05;10.80;99.90
4090;DHT22;2059;48.538;12.146;2024-03-22T08:29:07;11.50;99.90
4090;DHT22;2059;48.538;12.146;2024-03-22T08:34:10;11.50;99.90
4090;DHT22;2059;48.538;12.146;2024-03-22T08:39:13;12.00;99.90
4090;DHT22;2059;48.538;12.146;2024-03-22T08:44:15;12.50;99.90
4090;DHT22;2059;48.538;12.146;2024-03-22T08:49:17;12.90;99.90
4090;DHT22;2059;48.538;12.146;2024-03-22T08:54:21;13.70;99.90
4090;DHT22;2059;48.538;12.146;2024-03-22T08:59:22;13.50;99.90
4090;DHT22;2059;48.538;12.146;2024-03-22T09:04:25;13.80;99.90
4090;DHT22;2059;48.538;12.146;2024-03-22T09:09:28;14.30;99.90
4090;DHT22;2059;48.538;12.146;2024-03-22T09:14:29;14.00;99.90
4090;DHT22;2059;48.538;12.146;2024-03-22T09:19:31;13.70;99.90
4090;DHT22;2059;48.538;12.146;2024-03-22T09:24:34;13.00;99.90
4090;DHT22;2059;48.538;12.146;2024-03-22T09:29:36;13.10;99.90
4090;DHT22;2059;48.538;12.146;2024-03-22T09:34:38;13.70;99.90
4090;DHT22;2059;48.538;12.146;2024-03-22T09:39:42;13.90;99.90
4090;DHT22;2059;48.538;12.146;2024-03-22T09:44:47;13.90;99.90
4090;DHT22;2059;48.538;12.146;2024-03-22T09:49:49;14.40;99.90
4090;DHT22;2059;48.538;12.146;2024-03-22T09:54:52;14.50;99.90
4090;DHT22;2059;48.538;12.146;2024-03-22T09:59:53;14.70;99.90
4090;DHT22;2059;48.538;12.146;2024-03-22T10:04:56;14.70;99.90
4090;DHT22;2059;48.538;12.146;2024-03-22T10:10:00;15.20;99.90
4090;DHT22;2059;48.538;12.146;2024-03-22T10:15:02;15.10;99.90
4090;DHT22;2059;48.538;12.146;2024-03-22T10:20:05;15.30;99.80
4090;DHT22;2059;48.538;12.146;2024-03-22T10:25:14;15.70;99.90
4090;DHT22;2059;48.538;12.146;2024-03-22T10:30:16;16.30;99.30
4090;DHT22;2059;48.538;12.146;2024-03-22T10:35:18;16.60;98.90
4090;DHT22;2059;48.538;12.146;2024-03-22T10:40:22;16.80;98.30
4090;DHT22;2059;48.538;12.146;2024-03-22T10:45:24;16.30;98.80
4090;DHT22;2059;48.538;12.146;2024-03-22T10:50:29;16.60;98.70
4090;DHT22;2059;48.538;12.146;2024-03-22T10:55:36;16.70;99.00
4090;DHT22;2059;48.538;12.146;2024-03-22T11:00:41;17.30;98.10
4090;DHT22;2059;48.538;12.146;2024-03-22T11:05:47;17.70;96.70
4090;DHT22;2059;48.538;12.146;2024-03-22T11:10:51;17.90;96.00
4090;DHT22;2059;48.538;12.146;2024-03-22T11:15:53;18.30;93.00
4090;DHT22;2059;48.538;12.146;2024-03-22T11:20:55;17.80;94.30
4090;DHT22;2059;48.538;12.146;2024-03-22T11:25:58;18.50;92.00
4090;DHT22;2059;48.538;12.146;2024-03-22T11:31:00;18.20;93.30
4090;DHT22;2059;48.538;12.146;2024-03-22T11:36:03;18.30;92.50
4090;DHT22;2059;48.538;12.146;2024-03-22T11:41:07;18.00;91.60
4090;DHT22;2059;48.538;12.146;2024-03-22T11:46:09;17.60;87.90
4090;DHT22;2059;48.538;12.146;2024-03-22T11:51:11;18.40;86.30
4090;DHT22;2059;48.538;12.146;2024-03-22T11:56:17;18.80;82.10
4090;DHT22;2059;48.538;12.146;2024-03-22T12:01:19;19.40;82.00
4090;DHT22;2059;48.538;12.146;2024-03-22T12:06:23;20.00;78.80
4090;DHT22;2059;48.538;12.146;2024-03-22T12:11:26;20.40;79.80
4090;DHT22;2059;48.538;12.146;2024-03-22T12:16:28;20.10;79.40
4090;DHT22;2059;48.538;12.146;2024-03-22T12:21:29;19.90;76.90
4090;DHT22;2059;48.538;12.146;2024-03-22T12:26:33;19.30;80.00
4090;DHT22;2059;48.538;12.146;2024-03-22T12:31:36;19.60;78.60
4090;DHT22;2059;48.538;12.146;2024-03-22T12:36:38;19.50;79.40
4090;DHT22;2059;48.538;12.146;2024-03-22T12:41:41;19.50;78.70
4090;DHT22;2059;48.538;12.146;2024-03-22T12:46:43;18.80;81.20
4090;DHT22;2059;48.538;12.146;2024-03-22T12:51:45;18.90;81.80
4090;DHT22;2059;48.538;12.146;2024-03-22T12:56:48;19.20;81.30
4090;DHT22;2059;48.538;12.146;2024-03-22T13:01:50;19.50;81.50
4090;DHT22;2059;48.538;12.146;2024-03-22T13:06:52;19.20;80.40
4090;DHT22;2059;48.538;12.146;2024-03-22T13:11:55;18.80;80.70
4090;DHT22;2059;48.538;12.146;2024-03-22T13:16:57;18.70;81.60
4090;DHT22;2059;48.538;12.146;2024-03-22T13:21:58;19.30;82.60
4090;DHT22;2059;48.538;12.146;2024-03-22T13:27:01;19.70;80.60
4090;DHT22;2059;48.538;12.146;2024-03-22T13:32:04;19.80;81.00
4090;DHT22;2059;48.538;12.146;2024-03-22T13:37:07;20.00;80.20
4090;DHT22;2059;48.538;12.146;2024-03-22T13:42:10;20.00;81.90
4090;DHT22;2059;48.538;12.146;2024-03-22T13:47:13;20.00;80.50
4090;DHT22;2059;48.538;12.146;2024-03-22T13:52:14;19.50;80.10
4090;DHT22;2059;48.538;12.146;2024-03-22T13:57:17;19.00;82.20
4090;DHT22;2059;48.538;12.146;2024-03-22T14:02:19;18.90;81.70
4090;DHT22;2059;48.538;12.146;2024-03-22T14:07:21;19.00;81.00
4090;DHT22;2059;48.538;12.146;2024-03-22T14:12:24;18.80;82.20
4090;DHT22;2059;48.538;12.146;2024-03-22T14:17:26;19.50;82.20
4090;DHT22;2059;48.538;12.146;2024-03-22T14:22:28;19.90;82.30
4090;DHT22;2059;48.538;12.146;2024-03-22T14:27:32;19.70;81.90
4090;DHT22;2059;48.538;12.146;2024-03-22T14:32:34;20.10;80.10
4090;DHT22;2059;48.538;12.146;2024-03-22T14:37:36;19.90;79.80
4090;DHT22;2059;48.538;12.146;2024-03-22T14:42:39;19.30;81.40
4090;DHT22;2059;48.538;12.146;2024-03-22T14:47:41;19.50;80.50
4090;DHT22;2059;48.538;12.146;2024-03-22T14:52:42;19.50;81.00
4090;DHT22;2059;48.538;12.146;2024-03-22T14:57:45;19.20;80.70
4090;DHT22;2059;48.538;12.146;2024-03-22T15:02:47;19.20;80.80
4090;DHT22;2059;48.538;12.146;2024-03-22T15:07:49;19.40;81.40
4090;DHT22;2059;48.538;12.146;2024-03-22T15:12:52;20.00;81.20
4090;DHT22;2059;48.538;12.146;2024-03-22T15:17:53;20.80;79.10
4090;DHT22;2059;48.538;12.146;2024-03-22T15:22:55;20.50;79.30
4090;DHT22;2059;48.538;12.146;2024-03-22T15:27:58;20.10;80.10
4090;DHT22;2059;48.538;12.146;2024-03-22T15:33:00;19.40;80.80
4090;DHT22;2059;48.538;12.146;2024-03-22T15:38:03;18.90;82.50
4090;DHT22;2059;48.538;12.146;2024-03-22T15:43:07;18.70;82.60
4090;DHT22;2059;48.538;12.146;2024-03-22T15:48:08;18.70;83.40
4090;DHT22;2059;48.538;12.146;2024-03-22T15:53:11;18.90;84.40
4090;DHT22;2059;48.538;12.146;2024-03-22T15:58:14;19.20;83.30
4090;DHT22;2059;48.538;12.146;2024-03-22T16:03:15;19.10;83.60
4090;DHT22;2059;48.538;12.146;2024-03-22T16:08:17;20.30;82.30
4090;DHT22;2059;48.538;12.146;2024-03-22T16:13:21;21.70;80.80
4090;DHT22;2059;48.538;12.146;2024-03-22T16:18:22;21.90;79.30
4090;DHT22;2059;48.538;12.146;2024-03-22T16:23:24;21.30;80.00
4090;DHT22;2059;48.538;12.146;2024-03-22T16:28:27;20.90;80.30
4090;DHT22;2059;48.538;12.146;2024-03-22T16:33:29;20.20;82.50
4090;DHT22;2059;48.538;12.146;2024-03-22T16:38:31;19.70;83.10
4090;DHT22;2059;48.538;12.146;2024-03-22T16:43:34;19.20;84.90
4090;DHT22;2059;48.538;12.146;2024-03-22T16:48:36;18.90;85.00
4090;DHT22;2059;48.538;12.146;2024-03-22T16:53:38;18.90;85.50
4090;DHT22;2059;48.538;12.146;2024-03-22T16:58:41;18.80;86.10
4090;DHT22;2059;48.538;12.146;2024-03-22T17:03:42;18.60;87.40
4090;DHT22;2059;48.538;12.146;2024-03-22T17:08:56;18.60;86.50
4090;DHT22;2059;48.538;12.146;2024-03-22T17:14:00;18.20;88.10
4090;DHT22;2059;48.538;12.146;2024-03-22T17:19:02;18.00;88.50
4090;DHT22;2059;48.538;12.146;2024-03-22T17:24:04;17.90;89.50
4090;DHT22;2059;48.538;12.146;2024-03-22T17:29:08;17.60;90.00
4090;DHT22;2059;48.538;12.146;2024-03-22T17:34:10;17.30;90.40
4090;DHT22;2059;48.538;12.146;2024-03-22T17:39:12;17.10;90.80
4090;DHT22;2059;48.538;12.146;2024-03-22T17:44:16;17.00;90.90
4090;DHT22;2059;48.538;12.146;2024-03-22T17:49:17;16.90;91.00
4090;DHT22;2059;48.538;12.146;2024-03-22T17:54:19;17.00;91.40
4090;DHT22;2059;48.538;12.146;2024-03-22T17:59:22;16.80;91.50
4090;DHT22;2059;48.538;12.146;2024-03-22T18:04:24;16.70;92.00
4090;DHT22;2059;48.538;12.146;2024-03-22T18:09:25;16.70;92.10
4090;DHT22;2059;48.538;12.146;2024-03-22T18:14:28;16.50;92.40
4090;DHT22;2059;48.538;12.146;2024-03-22T18:19:30;16.40;92.70
4090;DHT22;2059;48.538;12.146;2024-03-22T18:24:32;16.40;93.10
4090;DHT22;2059;48.538;12.146;2024-03-22T18:29:36;16.20;93.50
4090;DHT22;2059;48.538;12.146;2024-03-22T18:34:38;16.00;93.70
4090;DHT22;2059;48.538;12.146;2024-03-22T18:39:39;15.90;94.30
4090;DHT22;2059;48.538;12.146;2024-03-22T18:44:42;15.70;94.40
4090;DHT22;2059;48.538;12.146;2024-03-22T18:49:45;15.70;94.60
4090;DHT22;2059;48.538;12.146;2024-03-22T18:54:54;15.60;94.90
4090;DHT22;2059;48.538;12.146;2024-03-22T18:59:58;15.60;95.60
4090;DHT22;2059;48.538;12.146;2024-03-22T19:04:59;15.30;95.80
4090;DHT22;2059;48.538;12.146;2024-03-22T19:10:01;15.30;96.10
4090;DHT22;2059;48.538;12.146;2024-03-22T19:15:06;15.30;96.50
4090;DHT22;2059;48.538;12.146;2024-03-22T19:20:08;15.20;96.90
4090;DHT22;2059;48.538;12.146;2024-03-22T19:25:10;15.10;97.20
4090;DHT22;2059;48.538;12.146;2024-03-22T19:30:13;15.10;97.30
4090;DHT22;2059;48.538;12.146;2024-03-22T19:35:15;15.00;97.40
4090;DHT22;2059;48.538;12.146;2024-03-22T19:40:17;14.80;98.00
4090;DHT22;2059;48.538;12.146;2024-03-22T19:45:20;14.60;98.80
4090;DHT22;2059;48.538;12.146;2024-03-22T19:50:22;14.50;98.80
4090;DHT22;2059;48.538;12.146;2024-03-22T19:55:24;14.60;98.90
4090;DHT22;2059;48.538;12.146;2024-03-22T20:00:27;14.70;99.00
4090;DHT22;2059;48.538;12.146;2024-03-22T20:05:28;14.60;99.00
4090;DHT22;2059;48.538;12.146;2024-03-22T20:10:30;14.50;99.40
4090;DHT22;2059;48.538;12.146;2024-03-22T20:15:33;14.60;99.30
4090;DHT22;2059;48.538;12.146;2024-03-22T20:20:35;14.70;99.40
4090;DHT22;2059;48.538;12.146;2024-03-22T20:25:38;14.70;99.60
4090;DHT22;2059;48.538;12.146;2024-03-22T20:30:41;14.60;99.80
4090;DHT22;2059;48.538;12.146;2024-03-22T20:35:42;14.30;99.90
